createdAt,value
2017-08-16T00:00:52.611Z,6.60
2017-08-16T00:03:20.071Z,7.53
2017-08-16T00:05:48.211Z,6.00
2017-08-16T00:08:15.702Z,4.80
2017-08-16T00:10:43.284Z,5.70
2017-08-16T00:13:10.818Z,5.30
2017-08-16T00:15:38.269Z,5.33
2017-08-16T00:18:05.934Z,5.10
2017-08-16T00:20:33.388Z,5.13
2017-08-16T00:23:00.955Z,5.50
2017-08-16T00:25:28.484Z,6.57
2017-08-16T00:27:55.965Z,5.07
2017-08-16T00:30:23.420Z,5.90
2017-08-16T00:32:50.900Z,4.27
2017-08-16T00:35:18.433Z,5.60
2017-08-16T00:37:45.940Z,4.43
2017-08-16T00:40:13.401Z,4.57
2017-08-16T00:42:40.876Z,4.63
2017-08-16T00:45:08.335Z,5.10
2017-08-16T00:47:35.818Z,4.63
2017-08-16T00:50:03.285Z,6.27
2017-08-16T00:52:30.760Z,3.50
2017-08-16T00:54:59.004Z,4.33
2017-08-16T00:57:26.471Z,3.73
2017-08-16T00:59:53.934Z,3.47
2017-08-16T01:02:21.475Z,4.07
2017-08-16T01:04:49.089Z,4.10
2017-08-16T01:07:16.652Z,3.57
2017-08-16T01:09:44.165Z,4.67
2017-08-16T01:12:11.622Z,4.50
2017-08-16T01:14:39.106Z,4.10
2017-08-16T01:17:06.647Z,5.17
2017-08-16T01:19:34.193Z,3.70
2017-08-16T01:22:01.649Z,4.37
2017-08-16T01:24:29.198Z,4.00
2017-08-16T01:26:56.660Z,3.97
2017-08-16T01:29:24.135Z,4.40
2017-08-16T01:31:51.677Z,3.40
2017-08-16T01:34:19.223Z,3.50
2017-08-16T01:36:46.681Z,3.70
2017-08-16T01:39:14.161Z,3.87
2017-08-16T01:41:41.699Z,3.67
2017-08-16T01:44:09.215Z,3.67
2017-08-16T01:46:36.685Z,3.57
2017-08-16T01:49:04.162Z,3.23
2017-08-16T01:51:31.757Z,3.67
2017-08-16T01:53:59.217Z,3.13
2017-08-16T01:56:26.767Z,3.37
2017-08-16T01:58:54.227Z,3.93
2017-08-16T02:01:21.773Z,3.77
2017-08-16T02:03:49.241Z,4.20
2017-08-16T02:06:16.736Z,3.00
2017-08-16T02:08:44.198Z,4.40
2017-08-16T02:11:11.672Z,3.13
2017-08-16T02:13:39.130Z,4.20
2017-08-16T02:16:06.719Z,5.30
2017-08-16T02:18:34.259Z,3.80
2017-08-16T02:21:01.829Z,3.37
2017-08-16T02:23:29.287Z,4.20
2017-08-16T02:25:56.773Z,3.50
2017-08-16T02:28:24.224Z,3.70
2017-08-16T02:30:51.761Z,4.43
2017-08-16T02:33:19.261Z,3.90
2017-08-16T02:35:46.721Z,3.90
2017-08-16T02:38:14.244Z,3.27
2017-08-16T02:40:41.708Z,4.30
2017-08-16T02:43:09.172Z,4.00
2017-08-16T02:45:36.705Z,4.40
2017-08-16T02:48:04.180Z,4.03
2017-08-16T02:50:31.642Z,3.83
2017-08-16T02:52:59.121Z,3.80
2017-08-16T02:55:26.620Z,4.30
2017-08-16T02:57:54.129Z,3.30
2017-08-16T03:00:21.635Z,3.97
2017-08-16T03:02:49.108Z,3.40
2017-08-16T03:05:16.629Z,4.00
2017-08-16T03:07:44.108Z,2.90
2017-08-16T03:10:11.666Z,4.20
2017-08-16T03:12:39.119Z,3.50
2017-08-16T03:15:06.694Z,3.50
2017-08-16T03:17:34.166Z,3.30
2017-08-16T03:20:01.649Z,3.77
2017-08-16T03:22:29.111Z,3.30
2017-08-16T03:24:56.707Z,4.17
2017-08-16T03:27:24.271Z,3.43
2017-08-16T03:29:51.841Z,3.53
2017-08-16T03:32:19.388Z,4.90
2017-08-16T03:34:46.857Z,3.60
2017-08-16T03:37:14.320Z,4.20
2017-08-16T03:39:41.914Z,3.67
2017-08-16T03:42:09.401Z,4.90
2017-08-16T03:44:36.904Z,5.20
2017-08-16T03:47:04.492Z,4.17
2017-08-16T03:49:32.067Z,4.77
2017-08-16T03:51:59.531Z,5.47
2017-08-16T03:54:27.025Z,4.20
2017-08-16T03:56:54.505Z,4.00
2017-08-16T03:59:22.033Z,4.80
2017-08-16T04:01:49.608Z,4.13
2017-08-16T04:04:17.128Z,4.13
2017-08-16T04:06:44.650Z,5.43
2017-08-16T04:09:12.107Z,4.10
2017-08-16T04:11:39.579Z,4.47
2017-08-16T04:14:07.037Z,5.20
2017-08-16T04:16:34.552Z,5.37
2017-08-16T04:19:02.021Z,6.90
2017-08-16T04:21:29.500Z,5.90
2017-08-16T04:23:56.998Z,6.33
2017-08-16T04:26:24.506Z,7.40
2017-08-16T04:28:51.981Z,6.20
2017-08-16T04:31:19.456Z,5.83
2017-08-16T04:33:46.938Z,5.87
2017-08-16T04:36:14.416Z,5.80
2017-08-16T04:38:43.221Z,6.00
2017-08-16T04:41:10.831Z,6.10
2017-08-16T04:43:38.299Z,5.60
2017-08-16T04:46:05.757Z,6.27
2017-08-16T04:48:33.315Z,5.77
2017-08-16T04:51:00.774Z,4.93
2017-08-16T04:53:28.394Z,5.23
2017-08-16T04:55:55.843Z,5.43
2017-08-16T04:58:23.349Z,7.00
2017-08-16T05:00:50.841Z,6.97
2017-08-16T05:03:18.302Z,6.90
2017-08-16T05:05:45.786Z,5.30
2017-08-16T05:08:13.369Z,6.73
2017-08-16T05:10:40.824Z,5.93
2017-08-16T05:13:08.292Z,5.93
2017-08-16T05:15:35.834Z,5.40
2017-08-16T05:18:03.746Z,5.83
2017-08-16T05:20:31.213Z,5.43
2017-08-16T05:22:58.675Z,6.03
2017-08-16T05:25:26.151Z,5.90
2017-08-16T05:27:53.624Z,6.00
2017-08-16T05:30:21.163Z,5.20
2017-08-16T05:32:48.603Z,5.20
2017-08-16T05:35:16.100Z,6.33
2017-08-16T05:37:43.552Z,6.40
2017-08-16T05:40:11.042Z,6.03
2017-08-16T05:42:38.501Z,5.33
2017-08-16T05:45:06.051Z,5.30
2017-08-16T05:47:33.592Z,5.27
2017-08-16T05:50:01.069Z,5.53
2017-08-16T05:52:28.517Z,5.20
2017-08-16T05:54:56.592Z,4.83
2017-08-16T05:57:24.049Z,4.90
2017-08-16T05:59:51.587Z,5.93
2017-08-16T06:02:19.058Z,5.50
2017-08-16T06:04:46.605Z,4.27
2017-08-16T06:07:14.060Z,5.67
2017-08-16T06:09:41.571Z,5.13
2017-08-16T06:12:09.024Z,4.60
2017-08-16T06:14:36.581Z,5.20
2017-08-16T06:17:04.050Z,4.77
2017-08-16T06:19:31.665Z,5.07
2017-08-16T06:21:59.212Z,4.53
2017-08-16T06:24:26.681Z,5.37
2017-08-16T06:26:54.149Z,4.70
2017-08-16T06:29:21.628Z,5.50
2017-08-16T06:31:49.100Z,5.83
2017-08-16T06:34:16.589Z,4.90
2017-08-16T06:36:44.147Z,6.03
2017-08-16T06:39:11.708Z,6.07
2017-08-16T06:41:39.277Z,3.87
2017-08-16T06:44:06.776Z,4.50
2017-08-16T06:46:34.284Z,4.50
2017-08-16T06:49:01.737Z,4.40
2017-08-16T06:51:29.207Z,4.43
2017-08-16T06:53:56.755Z,5.00
2017-08-16T06:56:24.319Z,4.20
2017-08-16T06:58:51.897Z,5.00
2017-08-16T07:01:19.456Z,4.30
2017-08-16T07:03:46.942Z,4.27
2017-08-16T07:06:14.441Z,4.50
2017-08-16T07:08:41.879Z,3.93
2017-08-16T07:11:09.362Z,4.20
2017-08-16T07:13:36.872Z,4.33
2017-08-16T07:16:04.403Z,3.70
2017-08-16T07:18:32.048Z,5.13
2017-08-16T07:21:00.393Z,4.03
2017-08-16T07:23:27.872Z,3.80
2017-08-16T07:25:55.326Z,4.13
2017-08-16T07:28:22.857Z,4.27
2017-08-16T07:30:50.303Z,4.20
2017-08-16T07:33:17.791Z,4.33
2017-08-16T07:35:45.241Z,4.23
2017-08-16T07:38:12.728Z,3.97
2017-08-16T07:40:40.283Z,4.73
2017-08-16T07:43:07.756Z,4.10
2017-08-16T07:45:35.289Z,4.87
2017-08-16T07:48:02.779Z,4.10
2017-08-16T07:50:30.253Z,3.80
2017-08-16T07:52:57.716Z,4.47
2017-08-16T07:55:25.209Z,3.17
2017-08-16T07:57:52.782Z,4.47
2017-08-16T08:00:20.892Z,4.80
2017-08-16T08:02:48.362Z,4.60
2017-08-16T08:05:15.841Z,4.43
2017-08-16T08:07:43.296Z,4.40
2017-08-16T08:10:10.781Z,4.07
2017-08-16T08:12:38.247Z,5.23
2017-08-16T08:15:05.779Z,4.80
2017-08-16T08:17:33.248Z,3.80
2017-08-16T08:20:00.800Z,4.60
2017-08-16T08:22:28.265Z,4.70
2017-08-16T08:24:56.174Z,6.20
2017-08-16T08:27:23.649Z,4.70
2017-08-16T08:29:51.148Z,4.97
2017-08-16T08:32:18.642Z,5.57
2017-08-16T08:34:46.189Z,4.47
2017-08-16T08:37:13.637Z,5.20
2017-08-16T08:39:41.180Z,5.80
2017-08-16T08:42:08.657Z,5.33
2017-08-16T08:44:36.212Z,6.33
2017-08-16T08:47:03.753Z,5.70
2017-08-16T08:49:31.300Z,6.63
2017-08-16T08:51:58.764Z,6.70
2017-08-16T08:54:26.213Z,5.37
2017-08-16T08:56:53.695Z,5.10
2017-08-16T08:59:21.162Z,5.37
2017-08-16T09:01:48.632Z,5.97
2017-08-16T09:04:16.093Z,6.10
2017-08-16T09:06:43.554Z,6.07
2017-08-16T09:09:11.013Z,6.70
2017-08-16T09:11:38.508Z,6.00
2017-08-16T09:14:05.956Z,6.10
2017-08-16T09:16:33.480Z,5.67
2017-08-16T09:19:00.941Z,5.07
2017-08-16T09:21:28.397Z,5.60
2017-08-16T09:23:55.883Z,4.90
2017-08-16T09:26:23.381Z,4.87
2017-08-16T09:28:50.858Z,5.03
2017-08-16T09:31:18.392Z,5.37
2017-08-16T09:33:45.954Z,5.17
2017-08-16T09:36:13.442Z,5.43
2017-08-16T09:38:40.917Z,5.00
2017-08-16T09:41:08.381Z,4.63
2017-08-16T09:43:35.848Z,4.67
2017-08-16T09:46:03.290Z,5.03
2017-08-16T09:48:30.879Z,4.60
2017-08-16T09:50:58.340Z,4.50
2017-08-16T09:53:25.807Z,4.13
2017-08-16T09:55:53.353Z,3.90
2017-08-16T09:58:20.847Z,3.70
2017-08-16T10:00:48.295Z,4.27
2017-08-16T10:03:15.810Z,4.93
2017-08-16T10:05:43.469Z,4.00
2017-08-16T10:08:11.090Z,3.53
2017-08-16T10:10:38.589Z,3.50
2017-08-16T10:13:06.147Z,3.50
2017-08-16T10:15:33.641Z,4.10
2017-08-16T10:18:01.709Z,4.20
2017-08-16T10:20:29.220Z,4.70
2017-08-16T10:22:56.672Z,3.53
2017-08-16T10:25:24.150Z,4.00
2017-08-16T10:27:51.612Z,4.10
2017-08-16T10:30:19.296Z,4.33
2017-08-16T10:32:46.837Z,3.80
2017-08-16T10:35:14.307Z,4.07
2017-08-16T10:37:41.790Z,3.33
2017-08-16T10:40:09.281Z,4.10
2017-08-16T10:42:37.318Z,3.87
2017-08-16T10:45:05.025Z,4.00
2017-08-16T10:47:32.677Z,4.00
2017-08-16T10:50:00.143Z,3.40
2017-08-16T10:52:27.653Z,3.40
2017-08-16T10:54:55.159Z,2.93
2017-08-16T10:57:22.669Z,4.20
2017-08-16T10:59:50.191Z,3.90
2017-08-16T11:02:17.683Z,3.53
2017-08-16T11:04:45.199Z,3.23
2017-08-16T11:07:12.663Z,4.50
2017-08-16T11:09:40.123Z,4.57
2017-08-16T11:12:07.662Z,3.40
2017-08-16T11:14:35.103Z,3.67
2017-08-16T11:17:02.680Z,4.10
2017-08-16T11:19:30.138Z,3.23
2017-08-16T11:21:57.720Z,4.07
2017-08-16T11:24:25.261Z,2.90
2017-08-16T11:26:52.759Z,3.87
2017-08-16T11:29:20.276Z,3.30
2017-08-16T11:31:47.737Z,4.43
2017-08-16T11:34:15.286Z,2.93
2017-08-16T11:36:42.835Z,3.50
2017-08-16T11:39:10.299Z,3.70
2017-08-16T11:41:37.875Z,3.50
2017-08-16T11:44:05.355Z,3.30
2017-08-16T11:46:32.874Z,3.07
2017-08-16T11:49:00.367Z,3.50
2017-08-16T11:51:27.812Z,3.10
2017-08-16T11:53:55.396Z,3.67
2017-08-16T11:56:22.853Z,2.53
2017-08-16T11:58:50.337Z,2.93
2017-08-16T12:01:17.867Z,2.80
2017-08-16T12:03:45.341Z,3.13
2017-08-16T12:06:12.829Z,2.87
2017-08-16T12:08:40.276Z,3.57
2017-08-16T12:11:07.812Z,3.20
2017-08-16T12:13:35.300Z,3.13
2017-08-16T12:16:02.865Z,3.90
2017-08-16T12:18:30.419Z,3.37
2017-08-16T12:20:57.927Z,3.40
2017-08-16T12:23:25.531Z,3.70
2017-08-16T12:25:53.104Z,3.60
2017-08-16T12:28:20.585Z,3.00
2017-08-16T12:30:48.163Z,3.30
2017-08-16T12:33:15.673Z,2.80
2017-08-16T12:35:43.640Z,3.60
2017-08-16T12:38:11.122Z,3.57
2017-08-16T12:40:38.597Z,2.97
2017-08-16T12:43:06.069Z,3.63
2017-08-16T12:45:33.577Z,3.53
2017-08-16T12:48:01.124Z,3.00
2017-08-16T12:50:28.573Z,2.90
2017-08-16T12:52:56.093Z,3.03
2017-08-16T12:55:23.554Z,4.13
2017-08-16T12:57:51.067Z,3.37
2017-08-16T13:00:18.992Z,2.90
2017-08-16T13:02:46.505Z,3.57
2017-08-16T13:05:14.043Z,3.77
2017-08-16T13:07:41.525Z,3.40
2017-08-16T13:10:09.050Z,3.73
2017-08-16T13:12:36.746Z,3.23
2017-08-16T13:15:06.248Z,3.60
2017-08-16T13:17:33.734Z,3.90
2017-08-16T13:20:01.233Z,3.67
2017-08-16T13:22:28.798Z,3.13
2017-08-16T13:24:56.874Z,3.70
2017-08-16T13:27:24.419Z,3.67
2017-08-16T13:29:51.871Z,3.60
2017-08-16T13:32:19.337Z,3.37
2017-08-16T13:34:46.897Z,3.90
2017-08-16T13:37:14.701Z,2.80
2017-08-16T13:39:42.221Z,3.43
2017-08-16T13:42:09.714Z,2.73
2017-08-16T13:44:37.213Z,2.20
2017-08-16T13:47:04.668Z,2.70
2017-08-16T13:49:32.257Z,3.07
2017-08-16T13:51:59.859Z,3.50
2017-08-16T13:54:27.334Z,2.93
2017-08-16T13:56:54.790Z,2.43
2017-08-16T13:59:22.275Z,2.80
2017-08-16T14:01:49.725Z,3.20
2017-08-16T14:04:17.208Z,4.07
2017-08-16T14:06:44.651Z,3.27
2017-08-16T14:09:12.121Z,2.77
2017-08-16T14:11:39.669Z,3.40
2017-08-16T14:14:07.144Z,3.23
2017-08-16T14:16:34.669Z,3.13
2017-08-16T14:19:03.029Z,2.83
2017-08-16T14:21:30.489Z,2.53
2017-08-16T14:23:57.941Z,3.53
2017-08-16T14:26:25.437Z,2.73
2017-08-16T14:28:52.890Z,2.50
2017-08-16T14:31:20.450Z,3.33
2017-08-16T14:33:47.979Z,3.10
2017-08-16T14:36:15.471Z,2.70
2017-08-16T14:38:42.992Z,3.10
2017-08-16T14:41:10.469Z,2.77
2017-08-16T14:43:37.925Z,3.70
2017-08-16T14:46:05.457Z,4.73
2017-08-16T14:48:32.934Z,3.00
2017-08-16T14:51:00.417Z,3.17
2017-08-16T14:53:27.879Z,2.47
2017-08-16T14:55:55.421Z,2.80
2017-08-16T14:58:22.975Z,3.13
2017-08-16T15:00:50.528Z,3.10
2017-08-16T15:03:18.092Z,2.43
2017-08-16T15:05:45.623Z,3.07
2017-08-16T15:08:13.081Z,2.87
2017-08-16T15:10:40.660Z,2.83
2017-08-16T15:13:08.120Z,3.00
2017-08-16T15:15:35.607Z,2.07
2017-08-16T15:18:03.389Z,2.30
2017-08-16T15:20:30.860Z,2.10
2017-08-16T15:22:58.340Z,2.30
2017-08-16T15:25:25.788Z,2.10
2017-08-16T15:27:53.348Z,2.00
2017-08-16T15:30:21.006Z,1.97
2017-08-16T15:32:48.485Z,2.50
2017-08-16T15:35:15.937Z,3.63
2017-08-16T15:37:43.424Z,1.90
2017-08-16T15:40:10.894Z,2.50
2017-08-16T15:42:38.956Z,2.20
2017-08-16T15:45:06.412Z,2.30
2017-08-16T15:47:33.892Z,2.00
2017-08-16T15:50:01.346Z,1.40
2017-08-16T15:52:29.646Z,1.87
2017-08-16T15:54:57.122Z,1.80
2017-08-16T15:57:24.695Z,1.97
2017-08-16T15:59:52.159Z,2.13
2017-08-16T16:02:19.653Z,1.70
2017-08-16T16:04:47.173Z,1.73
2017-08-16T16:07:14.689Z,2.57
2017-08-16T16:09:42.226Z,2.30
2017-08-16T16:12:09.836Z,1.30
2017-08-16T16:14:37.306Z,1.83
2017-08-16T16:17:04.885Z,2.20
2017-08-16T16:19:32.367Z,3.00
2017-08-16T16:21:59.825Z,1.33
2017-08-16T16:24:27.374Z,1.73
2017-08-16T16:26:54.828Z,1.60
2017-08-16T16:29:22.353Z,3.30
2017-08-16T16:31:49.966Z,2.20
2017-08-16T16:34:17.705Z,2.40
2017-08-16T16:36:45.229Z,2.00
2017-08-16T16:39:12.680Z,2.70
2017-08-16T16:41:40.151Z,2.83
2017-08-16T16:44:07.692Z,7.50
2017-08-16T16:46:35.656Z,3.83
2017-08-16T16:49:03.155Z,1.67
2017-08-16T16:51:30.673Z,2.17
2017-08-16T16:53:58.115Z,1.63
2017-08-16T16:56:25.593Z,2.43
2017-08-16T16:58:53.504Z,2.37
2017-08-16T17:01:21.053Z,2.10
2017-08-16T17:03:48.572Z,2.20
2017-08-16T17:06:16.128Z,2.20
2017-08-16T17:08:43.693Z,2.20
2017-08-16T17:11:11.550Z,1.93
2017-08-16T17:13:39.117Z,2.57
2017-08-16T17:16:06.681Z,2.00
2017-08-16T17:18:34.146Z,1.80
2017-08-16T17:21:01.693Z,2.50
2017-08-16T17:23:29.471Z,2.47
2017-08-16T17:25:56.934Z,1.80
2017-08-16T17:28:24.425Z,2.40
2017-08-16T17:30:51.880Z,2.00
2017-08-16T17:33:19.358Z,1.97
2017-08-16T17:35:46.844Z,2.47
2017-08-16T17:38:14.370Z,1.97
2017-08-16T17:40:41.832Z,2.60
2017-08-16T17:43:09.305Z,1.80
2017-08-16T17:45:36.747Z,3.00
2017-08-16T17:48:04.220Z,2.50
2017-08-16T17:50:31.698Z,3.00
2017-08-16T17:52:59.168Z,2.60
2017-08-16T17:55:26.699Z,2.43
2017-08-16T17:57:54.255Z,2.57
2017-08-16T18:00:21.881Z,2.67
2017-08-16T18:02:49.378Z,3.03
2017-08-16T18:05:16.929Z,2.13
2017-08-16T18:07:44.389Z,2.73
2017-08-16T18:10:11.872Z,3.27
2017-08-16T18:12:39.405Z,2.50
2017-08-16T18:15:07.290Z,2.23
2017-08-16T18:17:34.824Z,2.73
2017-08-16T18:20:02.292Z,2.77
2017-08-16T18:22:29.841Z,2.40
2017-08-16T18:24:57.324Z,2.97
2017-08-16T18:27:25.061Z,3.03
2017-08-16T18:29:52.526Z,3.27
2017-08-16T18:32:19.987Z,3.63
2017-08-16T18:34:47.527Z,3.00
2017-08-16T18:37:15.009Z,3.20
2017-08-16T18:39:43.307Z,3.67
2017-08-16T18:42:10.790Z,3.07
2017-08-16T18:44:38.259Z,2.67
2017-08-16T18:47:05.721Z,2.43
2017-08-16T18:49:33.199Z,3.60
2017-08-16T18:52:00.830Z,2.40
2017-08-16T18:54:28.313Z,2.97
2017-08-16T18:56:55.792Z,3.10
2017-08-16T18:59:23.333Z,3.73
2017-08-16T19:01:50.813Z,3.10
2017-08-16T19:04:18.345Z,2.70
2017-08-16T19:06:45.902Z,2.60
2017-08-16T19:09:13.468Z,3.30
2017-08-16T19:11:41.013Z,3.50
2017-08-16T19:14:08.587Z,3.60
2017-08-16T19:16:36.073Z,2.87
2017-08-16T19:19:03.596Z,2.50
2017-08-16T19:21:31.150Z,3.60
2017-08-16T19:23:58.700Z,4.90
2017-08-16T19:26:26.197Z,2.90
2017-08-16T19:28:53.657Z,3.20
2017-08-16T19:31:21.184Z,3.80
2017-08-16T19:33:48.745Z,3.50
2017-08-16T19:36:16.209Z,3.90
2017-08-16T19:38:43.684Z,3.80
2017-08-16T19:41:11.226Z,2.97
2017-08-16T19:43:38.782Z,3.60
2017-08-16T19:46:06.325Z,3.03
2017-08-16T19:48:33.800Z,2.97
2017-08-16T19:51:01.338Z,3.30
2017-08-16T19:53:28.808Z,3.70
2017-08-16T19:55:56.407Z,3.93
2017-08-16T19:58:23.925Z,3.40
2017-08-16T20:00:51.471Z,3.57
2017-08-16T20:03:18.961Z,3.60
2017-08-16T20:05:46.442Z,3.60
2017-08-16T20:08:14.044Z,4.17
2017-08-16T20:10:41.519Z,4.00
2017-08-16T20:13:09.066Z,3.90
2017-08-16T20:15:36.545Z,4.47
2017-08-16T20:18:04.075Z,4.57
2017-08-16T20:20:31.636Z,5.00
2017-08-16T20:22:59.203Z,4.67
2017-08-16T20:25:26.747Z,4.50
2017-08-16T20:27:54.195Z,4.60
2017-08-16T20:30:21.678Z,5.23
2017-08-16T20:32:49.173Z,5.20
2017-08-16T20:35:16.684Z,4.70
2017-08-16T20:37:44.131Z,4.63
2017-08-16T20:40:11.601Z,3.70
2017-08-16T20:42:39.157Z,4.63
2017-08-16T20:45:06.649Z,4.60
2017-08-16T20:47:34.096Z,3.80
2017-08-16T20:50:01.629Z,4.07
2017-08-16T20:52:29.195Z,4.70
2017-08-16T20:54:56.649Z,4.23
2017-08-16T20:57:24.144Z,4.60
2017-08-16T20:59:51.600Z,4.80
2017-08-16T21:02:19.176Z,4.90
2017-08-16T21:04:46.633Z,4.40
2017-08-16T21:07:14.109Z,4.50
2017-08-16T21:09:42.473Z,5.00
2017-08-16T21:12:09.954Z,5.23
2017-08-16T21:14:37.467Z,4.93
2017-08-16T21:17:05.027Z,4.80
2017-08-16T21:19:32.551Z,3.93
2017-08-16T21:22:00.547Z,4.80
2017-08-16T21:24:28.056Z,4.70
2017-08-16T21:26:55.618Z,5.20
2017-08-16T21:29:23.092Z,5.90
2017-08-16T21:31:50.644Z,5.50
2017-08-16T21:34:18.121Z,4.40
2017-08-16T21:36:45.649Z,4.53
2017-08-16T21:39:13.226Z,5.63
2017-08-16T21:41:40.687Z,7.13
2017-08-16T21:44:08.161Z,5.67
2017-08-16T21:46:35.628Z,7.00
2017-08-16T21:49:03.131Z,5.83
2017-08-16T21:51:30.579Z,5.70
2017-08-16T21:53:58.204Z,5.87
2017-08-16T21:56:25.676Z,6.20
2017-08-16T21:58:53.273Z,6.27
2017-08-16T22:01:20.728Z,5.87
2017-08-16T22:03:48.210Z,5.93
2017-08-16T22:06:15.691Z,6.40
2017-08-16T22:08:43.149Z,6.40
2017-08-16T22:11:10.624Z,7.00
2017-08-16T22:13:38.082Z,6.80
2017-08-16T22:16:05.567Z,6.57
2017-08-16T22:18:33.048Z,6.30
2017-08-16T22:21:00.515Z,7.00
2017-08-16T22:23:27.982Z,6.90
2017-08-16T22:25:55.609Z,6.40
2017-08-16T22:28:23.154Z,7.10
2017-08-16T22:30:50.643Z,7.43
2017-08-16T22:33:18.100Z,7.53
2017-08-16T22:35:45.626Z,6.73
2017-08-16T22:38:13.242Z,8.07
2017-08-16T22:40:40.739Z,8.10
2017-08-16T22:43:08.184Z,7.40
2017-08-16T22:45:35.812Z,8.00
2017-08-16T22:48:03.275Z,7.90
2017-08-16T22:50:30.765Z,7.00
2017-08-16T22:52:58.337Z,8.13
2017-08-16T22:55:25.797Z,8.10
2017-08-16T22:57:53.363Z,8.20
2017-08-16T23:00:20.815Z,7.40
2017-08-16T23:02:48.297Z,7.73
2017-08-16T23:05:15.752Z,7.70
2017-08-16T23:07:43.229Z,8.67
2017-08-16T23:10:10.683Z,8.03
2017-08-16T23:12:38.188Z,7.80
2017-08-16T23:15:05.753Z,8.00
2017-08-16T23:17:33.358Z,8.80
2017-08-16T23:20:00.868Z,7.83
2017-08-16T23:22:28.345Z,8.43
2017-08-16T23:24:56.266Z,8.17
2017-08-16T23:27:23.853Z,8.90
2017-08-16T23:29:51.519Z,9.67
2017-08-16T23:32:19.077Z,9.93
2017-08-16T23:34:46.622Z,8.70
2017-08-16T23:37:14.341Z,8.37
2017-08-16T23:39:41.835Z,8.30
2017-08-16T23:42:09.283Z,9.33
2017-08-16T23:44:36.868Z,8.77
2017-08-16T23:47:04.354Z,8.80
2017-08-16T23:49:31.882Z,8.60
2017-08-16T23:51:59.436Z,8.23
2017-08-16T23:54:27.001Z,8.10
2017-08-16T23:56:54.476Z,8.40
2017-08-16T23:59:22.012Z,9.17
